sensor_id;sensor_type;location;lat;lon;timestamp;P1;durP1;ratioP1;P2;durP2;ratioP2
15748;SDS011;7976;52.526;13.326;2023-11-21T00:02:24;15.00;;;5.93;;
15748;SDS011;7976;52.526;13.326;2023-11-21T00:04:52;15.63;;;6.00;;
15748;SDS011;7976;52.526;13.326;2023-11-21T00:07:20;17.52;;;6.85;;
15748;SDS011;7976;52.526;13.326;2023-11-21T00:09:47;17.90;;;6.88;;
15748;SDS011;7976;52.526;13.326;2023-11-21T00:12:14;18.25;;;7.05;;
15748;SDS011;7976;52.526;13.326;2023-11-21T00:14:42;24.83;;;8.70;;
15748;SDS011;7976;52.526;13.326;2023-11-21T00:17:09;22.50;;;8.98;;
15748;SDS011;7976;52.526;13.326;2023-11-21T00:19:36;25.48;;;9.32;;
15748;SDS011;7976;52.526;13.326;2023-11-21T00:22:03;27.90;;;9.43;;
15748;SDS011;7976;52.526;13.326;2023-11-21T00:24:32;22.08;;;9.10;;
15748;SDS011;7976;52.526;13.326;2023-11-21T00:26:59;25.65;;;8.68;;
15748;SDS011;7976;52.526;13.326;2023-11-21T00:29:26;20.85;;;8.10;;
15748;SDS011;7976;52.526;13.326;2023-11-21T00:31:53;27.98;;;8.98;;
15748;SDS011;7976;52.526;13.326;2023-11-21T00:34:20;26.05;;;8.88;;
15748;SDS011;7976;52.526;13.326;2023-11-21T00:36:47;25.30;;;8.70;;
15748;SDS011;7976;52.526;13.326;2023-11-21T00:39:14;27.75;;;8.68;;
15748;SDS011;7976;52.526;13.326;2023-11-21T00:41:42;35.17;;;10.13;;
15748;SDS011;7976;52.526;13.326;2023-11-21T00:44:09;29.35;;;11.13;;
15748;SDS011;7976;52.526;13.326;2023-11-21T00:46:36;28.75;;;9.88;;
15748;SDS011;7976;52.526;13.326;2023-11-21T00:49:03;35.45;;;10.77;;
15748;SDS011;7976;52.526;13.326;2023-11-21T00:51:30;36.38;;;11.27;;
15748;SDS011;7976;52.526;13.326;2023-11-21T00:53:57;31.92;;;10.32;;
15748;SDS011;7976;52.526;13.326;2023-11-21T00:56:24;36.83;;;10.95;;
15748;SDS011;7976;52.526;13.326;2023-11-21T00:58:52;37.70;;;12.65;;
15748;SDS011;7976;52.526;13.326;2023-11-21T01:01:19;37.28;;;12.55;;
15748;SDS011;7976;52.526;13.326;2023-11-21T01:03:48;42.30;;;13.52;;
15748;SDS011;7976;52.526;13.326;2023-11-21T01:06:15;45.92;;;13.98;;
15748;SDS011;7976;52.526;13.326;2023-11-21T01:08:41;42.90;;;12.65;;
15748;SDS011;7976;52.526;13.326;2023-11-21T01:11:09;44.03;;;13.35;;
15748;SDS011;7976;52.526;13.326;2023-11-21T01:13:37;42.67;;;12.40;;
15748;SDS011;7976;52.526;13.326;2023-11-21T01:16:06;40.55;;;12.15;;
15748;SDS011;7976;52.526;13.326;2023-11-21T01:18:34;37.92;;;12.60;;
15748;SDS011;7976;52.526;13.326;2023-11-21T01:21:01;47.53;;;13.43;;
15748;SDS011;7976;52.526;13.326;2023-11-21T01:23:28;44.20;;;13.65;;
15748;SDS011;7976;52.526;13.326;2023-11-21T01:25:55;44.28;;;12.95;;
15748;SDS011;7976;52.526;13.326;2023-11-21T01:28:23;39.30;;;12.00;;
15748;SDS011;7976;52.526;13.326;2023-11-21T01:30:50;44.78;;;13.07;;
15748;SDS011;7976;52.526;13.326;2023-11-21T01:33:19;40.15;;;10.75;;
15748;SDS011;7976;52.526;13.326;2023-11-21T01:35:46;36.33;;;10.63;;
15748;SDS011;7976;52.526;13.326;2023-11-21T01:38:13;37.38;;;12.40;;
15748;SDS011;7976;52.526;13.326;2023-11-21T01:40:40;37.78;;;11.75;;
15748;SDS011;7976;52.526;13.326;2023-11-21T01:43:07;44.13;;;12.20;;
15748;SDS011;7976;52.526;13.326;2023-11-21T01:45:34;39.10;;;12.60;;
15748;SDS011;7976;52.526;13.326;2023-11-21T01:48:01;34.92;;;10.93;;
15748;SDS011;7976;52.526;13.326;2023-11-21T01:50:33;31.52;;;11.05;;
15748;SDS011;7976;52.526;13.326;2023-11-21T01:53:00;39.45;;;10.85;;
15748;SDS011;7976;52.526;13.326;2023-11-21T01:55:28;39.13;;;11.25;;
15748;SDS011;7976;52.526;13.326;2023-11-21T01:57:56;31.48;;;9.60;;
15748;SDS011;7976;52.526;13.326;2023-11-21T02:00:23;38.38;;;10.65;;
15748;SDS011;7976;52.526;13.326;2023-11-21T02:02:51;34.92;;;9.80;;
15748;SDS011;7976;52.526;13.326;2023-11-21T02:05:18;36.17;;;9.68;;
15748;SDS011;7976;52.526;13.326;2023-11-21T02:07:48;37.42;;;9.85;;
15748;SDS011;7976;52.526;13.326;2023-11-21T02:10:17;36.65;;;8.93;;
15748;SDS011;7976;52.526;13.326;2023-11-21T02:12:47;29.90;;;8.88;;
15748;SDS011;7976;52.526;13.326;2023-11-21T02:15:16;34.58;;;9.38;;
15748;SDS011;7976;52.526;13.326;2023-11-21T02:17:46;22.60;;;7.50;;
15748;SDS011;7976;52.526;13.326;2023-11-21T02:20:16;19.05;;;7.18;;
15748;SDS011;7976;52.526;13.326;2023-11-21T02:22:48;21.48;;;7.45;;
15748;SDS011;7976;52.526;13.326;2023-11-21T02:25:22;18.05;;;6.60;;
15748;SDS011;7976;52.526;13.326;2023-11-21T02:27:50;16.38;;;6.05;;
15748;SDS011;7976;52.526;13.326;2023-11-21T02:30:16;19.08;;;6.18;;
15748;SDS011;7976;52.526;13.326;2023-11-21T02:32:43;15.65;;;5.80;;
15748;SDS011;7976;52.526;13.326;2023-11-21T02:35:11;17.85;;;6.07;;
15748;SDS011;7976;52.526;13.326;2023-11-21T02:37:38;15.52;;;6.05;;
15748;SDS011;7976;52.526;13.326;2023-11-21T02:40:08;18.83;;;6.13;;
15748;SDS011;7976;52.526;13.326;2023-11-21T02:42:37;16.60;;;6.22;;
15748;SDS011;7976;52.526;13.326;2023-11-21T02:45:06;14.25;;;5.18;;
15748;SDS011;7976;52.526;13.326;2023-11-21T02:47:34;14.40;;;5.38;;
15748;SDS011;7976;52.526;13.326;2023-11-21T02:50:01;15.73;;;5.75;;
15748;SDS011;7976;52.526;13.326;2023-11-21T02:52:28;15.55;;;5.47;;
15748;SDS011;7976;52.526;13.326;2023-11-21T02:54:58;15.13;;;5.60;;
15748;SDS011;7976;52.526;13.326;2023-11-21T02:57:26;14.85;;;5.78;;
15748;SDS011;7976;52.526;13.326;2023-11-21T02:59:53;14.50;;;5.35;;
15748;SDS011;7976;52.526;13.326;2023-11-21T03:02:20;14.65;;;5.45;;
15748;SDS011;7976;52.526;13.326;2023-11-21T03:04:50;14.93;;;5.90;;
15748;SDS011;7976;52.526;13.326;2023-11-21T03:07:18;16.23;;;5.72;;
15748;SDS011;7976;52.526;13.326;2023-11-21T03:09:45;14.50;;;5.80;;
15748;SDS011;7976;52.526;13.326;2023-11-21T03:12:12;13.50;;;5.72;;
15748;SDS011;7976;52.526;13.326;2023-11-21T03:14:40;16.13;;;6.30;;
15748;SDS011;7976;52.526;13.326;2023-11-21T03:17:07;18.38;;;6.65;;
15748;SDS011;7976;52.526;13.326;2023-11-21T03:19:34;14.85;;;5.85;;
15748;SDS011;7976;52.526;13.326;2023-11-21T03:22:01;17.05;;;5.95;;
15748;SDS011;7976;52.526;13.326;2023-11-21T03:24:29;15.82;;;6.10;;
15748;SDS011;7976;52.526;13.326;2023-11-21T03:26:56;12.88;;;5.55;;
15748;SDS011;7976;52.526;13.326;2023-11-21T03:29:23;15.10;;;6.20;;
15748;SDS011;7976;52.526;13.326;2023-11-21T03:31:51;14.90;;;6.40;;
15748;SDS011;7976;52.526;13.326;2023-11-21T03:34:22;15.77;;;5.80;;
15748;SDS011;7976;52.526;13.326;2023-11-21T03:36:51;16.80;;;5.95;;
15748;SDS011;7976;52.526;13.326;2023-11-21T03:39:19;16.60;;;5.90;;
15748;SDS011;7976;52.526;13.326;2023-11-21T03:41:48;16.30;;;6.85;;
15748;SDS011;7976;52.526;13.326;2023-11-21T03:44:17;16.77;;;6.07;;
15748;SDS011;7976;52.526;13.326;2023-11-21T03:46:44;17.15;;;6.13;;
15748;SDS011;7976;52.526;13.326;2023-11-21T03:49:12;14.63;;;5.40;;
15748;SDS011;7976;52.526;13.326;2023-11-21T03:51:40;13.88;;;6.20;;
15748;SDS011;7976;52.526;13.326;2023-11-21T03:54:07;16.35;;;6.50;;
15748;SDS011;7976;52.526;13.326;2023-11-21T03:56:38;16.15;;;5.88;;
15748;SDS011;7976;52.526;13.326;2023-11-21T03:59:05;17.80;;;6.10;;
15748;SDS011;7976;52.526;13.326;2023-11-21T04:01:32;16.48;;;6.05;;
15748;SDS011;7976;52.526;13.326;2023-11-21T04:03:59;16.30;;;6.18;;
15748;SDS011;7976;52.526;13.326;2023-11-21T04:06:27;17.60;;;6.68;;
15748;SDS011;7976;52.526;13.326;2023-11-21T04:08:54;16.40;;;6.55;;
15748;SDS011;7976;52.526;13.326;2023-11-21T04:11:20;16.48;;;6.75;;
15748;SDS011;7976;52.526;13.326;2023-11-21T04:13:47;18.67;;;7.22;;
15748;SDS011;7976;52.526;13.326;2023-11-21T04:16:14;16.88;;;6.55;;
15748;SDS011;7976;52.526;13.326;2023-11-21T04:18:41;18.45;;;6.80;;
15748;SDS011;7976;52.526;13.326;2023-11-21T04:21:08;20.33;;;7.97;;
15748;SDS011;7976;52.526;13.326;2023-11-21T04:23:36;20.58;;;7.47;;
15748;SDS011;7976;52.526;13.326;2023-11-21T04:26:05;17.95;;;6.60;;
15748;SDS011;7976;52.526;13.326;2023-11-21T04:28:32;18.02;;;6.70;;
15748;SDS011;7976;52.526;13.326;2023-11-21T04:30:59;17.83;;;6.75;;
15748;SDS011;7976;52.526;13.326;2023-11-21T04:33:27;16.83;;;6.18;;
15748;SDS011;7976;52.526;13.326;2023-11-21T04:35:54;18.05;;;6.45;;
15748;SDS011;7976;52.526;13.326;2023-11-21T04:38:21;18.83;;;6.95;;
15748;SDS011;7976;52.526;13.326;2023-11-21T04:40:49;17.08;;;7.00;;
15748;SDS011;7976;52.526;13.326;2023-11-21T04:43:15;18.98;;;7.57;;
15748;SDS011;7976;52.526;13.326;2023-11-21T04:45:42;18.63;;;6.57;;
15748;SDS011;7976;52.526;13.326;2023-11-21T04:48:09;16.05;;;6.75;;
15748;SDS011;7976;52.526;13.326;2023-11-21T04:50:36;17.35;;;6.45;;
15748;SDS011;7976;52.526;13.326;2023-11-21T04:53:03;17.48;;;5.75;;
15748;SDS011;7976;52.526;13.326;2023-11-21T04:55:31;16.60;;;6.05;;
15748;SDS011;7976;52.526;13.326;2023-11-21T04:57:59;17.05;;;5.80;;
15748;SDS011;7976;52.526;13.326;2023-11-21T05:00:25;17.73;;;5.78;;
15748;SDS011;7976;52.526;13.326;2023-11-21T05:02:52;19.17;;;6.22;;
15748;SDS011;7976;52.526;13.326;2023-11-21T05:05:19;12.93;;;4.82;;
15748;SDS011;7976;52.526;13.326;2023-11-21T05:07:46;15.85;;;5.60;;
15748;SDS011;7976;52.526;13.326;2023-11-21T05:10:14;14.60;;;4.90;;
15748;SDS011;7976;52.526;13.326;2023-11-21T05:12:40;12.85;;;4.68;;
15748;SDS011;7976;52.526;13.326;2023-11-21T05:15:09;17.52;;;5.35;;
15748;SDS011;7976;52.526;13.326;2023-11-21T05:17:41;17.27;;;5.65;;
15748;SDS011;7976;52.526;13.326;2023-11-21T05:20:11;13.02;;;4.63;;
15748;SDS011;7976;52.526;13.326;2023-11-21T05:22:39;12.43;;;4.78;;
15748;SDS011;7976;52.526;13.326;2023-11-21T05:25:07;14.80;;;4.63;;
15748;SDS011;7976;52.526;13.326;2023-11-21T05:27:34;13.63;;;4.93;;
15748;SDS011;7976;52.526;13.326;2023-11-21T05:30:02;13.63;;;4.80;;
15748;SDS011;7976;52.526;13.326;2023-11-21T05:32:33;18.15;;;5.55;;
15748;SDS011;7976;52.526;13.326;2023-11-21T05:35:04;13.43;;;4.95;;
15748;SDS011;7976;52.526;13.326;2023-11-21T05:37:34;15.68;;;5.20;;
15748;SDS011;7976;52.526;13.326;2023-11-21T05:40:05;17.55;;;5.68;;
15748;SDS011;7976;52.526;13.326;2023-11-21T05:42:33;13.10;;;4.65;;
15748;SDS011;7976;52.526;13.326;2023-11-21T05:45:00;13.73;;;4.32;;
15748;SDS011;7976;52.526;13.326;2023-11-21T05:47:36;16.90;;;5.15;;
15748;SDS011;7976;52.526;13.326;2023-11-21T05:50:06;14.85;;;5.00;;
15748;SDS011;7976;52.526;13.326;2023-11-21T05:52:37;15.18;;;4.60;;
15748;SDS011;7976;52.526;13.326;2023-11-21T05:55:10;15.63;;;4.88;;
15748;SDS011;7976;52.526;13.326;2023-11-21T05:57:38;13.13;;;4.60;;
15748;SDS011;7976;52.526;13.326;2023-11-21T06:00:07;15.77;;;5.10;;
15748;SDS011;7976;52.526;13.326;2023-11-21T06:02:39;12.57;;;4.18;;
15748;SDS011;7976;52.526;13.326;2023-11-21T06:05:07;13.10;;;4.65;;
15748;SDS011;7976;52.526;13.326;2023-11-21T06:07:35;11.70;;;4.10;;
15748;SDS011;7976;52.526;13.326;2023-11-21T06:10:04;11.40;;;4.10;;
15748;SDS011;7976;52.526;13.326;2023-11-21T06:12:34;14.65;;;4.68;;
15748;SDS011;7976;52.526;13.326;2023-11-21T06:15:01;13.95;;;4.35;;
15748;SDS011;7976;52.526;13.326;2023-11-21T06:17:30;12.57;;;4.22;;
15748;SDS011;7976;52.526;13.326;2023-11-21T06:19:59;13.32;;;4.60;;
15748;SDS011;7976;52.526;13.326;2023-11-21T06:22:26;13.13;;;4.65;;
15748;SDS011;7976;52.526;13.326;2023-11-21T06:24:52;11.55;;;3.92;;
15748;SDS011;7976;52.526;13.326;2023-11-21T06:27:19;12.40;;;3.92;;
15748;SDS011;7976;52.526;13.326;2023-11-21T06:29:46;12.10;;;3.78;;
15748;SDS011;7976;52.526;13.326;2023-11-21T06:32:13;12.38;;;3.50;;
15748;SDS011;7976;52.526;13.326;2023-11-21T06:34:41;13.70;;;3.90;;
15748;SDS011;7976;52.526;13.326;2023-11-21T06:37:09;10.82;;;3.65;;
15748;SDS011;7976;52.526;13.326;2023-11-21T06:39:37;10.43;;;3.72;;
15748;SDS011;7976;52.526;13.326;2023-11-21T06:42:04;10.73;;;3.42;;
15748;SDS011;7976;52.526;13.326;2023-11-21T06:44:31;11.63;;;3.60;;
15748;SDS011;7976;52.526;13.326;2023-11-21T06:47:00;11.25;;;3.78;;
15748;SDS011;7976;52.526;13.326;2023-11-21T06:49:27;10.82;;;3.60;;
15748;SDS011;7976;52.526;13.326;2023-11-21T06:51:54;10.05;;;3.95;;
15748;SDS011;7976;52.526;13.326;2023-11-21T06:54:22;14.05;;;4.15;;
15748;SDS011;7976;52.526;13.326;2023-11-21T06:56:49;9.65;;;2.88;;
15748;SDS011;7976;52.526;13.326;2023-11-21T06:59:18;10.70;;;3.80;;
15748;SDS011;7976;52.526;13.326;2023-11-21T07:01:45;11.93;;;3.50;;
15748;SDS011;7976;52.526;13.326;2023-11-21T07:04:12;11.55;;;4.10;;
15748;SDS011;7976;52.526;13.326;2023-11-21T07:06:39;10.45;;;3.83;;
15748;SDS011;7976;52.526;13.326;2023-11-21T07:09:05;9.63;;;3.10;;
15748;SDS011;7976;52.526;13.326;2023-11-21T07:11:34;8.45;;;3.00;;
15748;SDS011;7976;52.526;13.326;2023-11-21T07:14:01;10.23;;;3.00;;
15748;SDS011;7976;52.526;13.326;2023-11-21T07:16:32;11.60;;;3.35;;
15748;SDS011;7976;52.526;13.326;2023-11-21T07:19:02;10.55;;;3.03;;
15748;SDS011;7976;52.526;13.326;2023-11-21T07:21:31;11.90;;;3.30;;
15748;SDS011;7976;52.526;13.326;2023-11-21T07:23:58;13.70;;;3.20;;
15748;SDS011;7976;52.526;13.326;2023-11-21T07:26:26;10.50;;;3.08;;
15748;SDS011;7976;52.526;13.326;2023-11-21T07:28:54;10.82;;;3.35;;
15748;SDS011;7976;52.526;13.326;2023-11-21T07:31:21;9.18;;;2.70;;
15748;SDS011;7976;52.526;13.326;2023-11-21T07:33:49;11.90;;;3.15;;
15748;SDS011;7976;52.526;13.326;2023-11-21T07:36:17;9.05;;;3.00;;
15748;SDS011;7976;52.526;13.326;2023-11-21T07:38:46;10.45;;;3.20;;
15748;SDS011;7976;52.526;13.326;2023-11-21T07:41:13;10.10;;;3.22;;
15748;SDS011;7976;52.526;13.326;2023-11-21T07:43:41;13.15;;;3.83;;
15748;SDS011;7976;52.526;13.326;2023-11-21T07:46:09;9.60;;;3.40;;
15748;SDS011;7976;52.526;13.326;2023-11-21T07:48:37;13.00;;;3.63;;
15748;SDS011;7976;52.526;13.326;2023-11-21T07:51:06;11.45;;;3.17;;
15748;SDS011;7976;52.526;13.326;2023-11-21T07:53:33;13.68;;;3.88;;
15748;SDS011;7976;52.526;13.326;2023-11-21T07:56:02;11.55;;;3.58;;
15748;SDS011;7976;52.526;13.326;2023-11-21T07:58:31;9.90;;;3.13;;
15748;SDS011;7976;52.526;13.326;2023-11-21T08:00:58;11.75;;;3.33;;
15748;SDS011;7976;52.526;13.326;2023-11-21T08:03:27;9.60;;;3.30;;
15748;SDS011;7976;52.526;13.326;2023-11-21T08:05:55;10.65;;;3.03;;
15748;SDS011;7976;52.526;13.326;2023-11-21T08:08:22;10.45;;;2.92;;
15748;SDS011;7976;52.526;13.326;2023-11-21T08:10:49;11.38;;;3.20;;
15748;SDS011;7976;52.526;13.326;2023-11-21T08:13:21;11.45;;;3.00;;
15748;SDS011;7976;52.526;13.326;2023-11-21T08:15:48;9.32;;;3.28;;
15748;SDS011;7976;52.526;13.326;2023-11-21T08:18:15;9.95;;;3.03;;
15748;SDS011;7976;52.526;13.326;2023-11-21T08:20:44;10.68;;;3.90;;
15748;SDS011;7976;52.526;13.326;2023-11-21T08:23:12;9.23;;;3.17;;
15748;SDS011;7976;52.526;13.326;2023-11-21T08:25:41;10.70;;;3.13;;
15748;SDS011;7976;52.526;13.326;2023-11-21T08:28:09;10.75;;;3.42;;
15748;SDS011;7976;52.526;13.326;2023-11-21T08:30:36;12.55;;;4.00;;
15748;SDS011;7976;52.526;13.326;2023-11-21T08:33:03;10.70;;;3.17;;
15748;SDS011;7976;52.526;13.326;2023-11-21T08:35:29;12.82;;;3.38;;
15748;SDS011;7976;52.526;13.326;2023-11-21T08:37:58;14.10;;;3.53;;
15748;SDS011;7976;52.526;13.326;2023-11-21T08:40:25;10.30;;;3.60;;
15748;SDS011;7976;52.526;13.326;2023-11-21T08:42:53;11.95;;;3.30;;
15748;SDS011;7976;52.526;13.326;2023-11-21T08:45:20;11.85;;;3.33;;
15748;SDS011;7976;52.526;13.326;2023-11-21T08:47:48;12.65;;;3.15;;
15748;SDS011;7976;52.526;13.326;2023-11-21T08:50:15;13.93;;;4.07;;
15748;SDS011;7976;52.526;13.326;2023-11-21T08:52:43;10.95;;;3.85;;
15748;SDS011;7976;52.526;13.326;2023-11-21T08:55:13;11.13;;;3.40;;
15748;SDS011;7976;52.526;13.326;2023-11-21T08:57:40;12.75;;;3.60;;
15748;SDS011;7976;52.526;13.326;2023-11-21T09:00:10;10.80;;;3.60;;
15748;SDS011;7976;52.526;13.326;2023-11-21T09:02:38;13.70;;;4.30;;
15748;SDS011;7976;52.526;13.326;2023-11-21T09:05:07;11.43;;;3.47;;
15748;SDS011;7976;52.526;13.326;2023-11-21T09:07:35;20.38;;;4.30;;
15748;SDS011;7976;52.526;13.326;2023-11-21T09:10:02;13.10;;;3.72;;
15748;SDS011;7976;52.526;13.326;2023-11-21T09:12:33;10.00;;;3.42;;
15748;SDS011;7976;52.526;13.326;2023-11-21T09:15:02;12.07;;;3.75;;
15748;SDS011;7976;52.526;13.326;2023-11-21T09:17:30;11.05;;;3.53;;
15748;SDS011;7976;52.526;13.326;2023-11-21T09:19:57;9.55;;;3.33;;
15748;SDS011;7976;52.526;13.326;2023-11-21T09:22:24;12.13;;;3.83;;
15748;SDS011;7976;52.526;13.326;2023-11-21T09:24:52;10.50;;;4.03;;
15748;SDS011;7976;52.526;13.326;2023-11-21T09:27:19;10.57;;;3.72;;
15748;SDS011;7976;52.526;13.326;2023-11-21T09:29:48;13.00;;;3.80;;
15748;SDS011;7976;52.526;13.326;2023-11-21T09:32:15;13.73;;;3.47;;
15748;SDS011;7976;52.526;13.326;2023-11-21T09:34:43;10.85;;;3.70;;
15748;SDS011;7976;52.526;13.326;2023-11-21T09:37:11;12.00;;;3.45;;
15748;SDS011;7976;52.526;13.326;2023-11-21T09:39:37;13.82;;;3.90;;
15748;SDS011;7976;52.526;13.326;2023-11-21T09:42:08;15.25;;;4.30;;
15748;SDS011;7976;52.526;13.326;2023-11-21T09:44:43;11.98;;;4.13;;
15748;SDS011;7976;52.526;13.326;2023-11-21T09:47:20;16.67;;;4.53;;
15748;SDS011;7976;52.526;13.326;2023-11-21T09:49:48;12.05;;;3.88;;
15748;SDS011;7976;52.526;13.326;2023-11-21T09:52:22;14.63;;;4.50;;
15748;SDS011;7976;52.526;13.326;2023-11-21T09:54:52;12.25;;;4.18;;
15748;SDS011;7976;52.526;13.326;2023-11-21T09:57:22;19.25;;;5.38;;
15748;SDS011;7976;52.526;13.326;2023-11-21T09:59:52;19.02;;;5.35;;
15748;SDS011;7976;52.526;13.326;2023-11-21T10:02:23;17.35;;;4.78;;
15748;SDS011;7976;52.526;13.326;2023-11-21T10:04:55;16.50;;;5.45;;
15748;SDS011;7976;52.526;13.326;2023-11-21T10:07:24;19.08;;;5.03;;
15748;SDS011;7976;52.526;13.326;2023-11-21T10:09:53;17.40;;;3.90;;
15748;SDS011;7976;52.526;13.326;2023-11-21T10:12:21;12.27;;;4.18;;
15748;SDS011;7976;52.526;13.326;2023-11-21T10:14:51;17.02;;;4.50;;
15748;SDS011;7976;52.526;13.326;2023-11-21T10:17:25;14.60;;;4.53;;
15748;SDS011;7976;52.526;13.326;2023-11-21T10:19:55;15.60;;;4.63;;
15748;SDS011;7976;52.526;13.326;2023-11-21T10:22:23;15.80;;;4.93;;
15748;SDS011;7976;52.526;13.326;2023-11-21T10:24:50;14.82;;;4.20;;
15748;SDS011;7976;52.526;13.326;2023-11-21T10:27:17;14.77;;;4.22;;
15748;SDS011;7976;52.526;13.326;2023-11-21T10:29:44;17.50;;;4.57;;
15748;SDS011;7976;52.526;13.326;2023-11-21T10:32:13;16.73;;;4.88;;
15748;SDS011;7976;52.526;13.326;2023-11-21T10:34:39;29.20;;;6.78;;
15748;SDS011;7976;52.526;13.326;2023-11-21T10:37:12;21.42;;;5.35;;
15748;SDS011;7976;52.526;13.326;2023-11-21T10:39:40;33.08;;;10.98;;
15748;SDS011;7976;52.526;13.326;2023-11-21T10:42:09;26.50;;;9.02;;
15748;SDS011;7976;52.526;13.326;2023-11-21T10:44:36;21.95;;;6.40;;
15748;SDS011;7976;52.526;13.326;2023-11-21T10:47:03;19.08;;;5.88;;
15748;SDS011;7976;52.526;13.326;2023-11-21T10:49:31;15.30;;;4.70;;
15748;SDS011;7976;52.526;13.326;2023-11-21T10:51:59;14.73;;;3.42;;
15748;SDS011;7976;52.526;13.326;2023-11-21T10:54:26;12.45;;;3.22;;
15748;SDS011;7976;52.526;13.326;2023-11-21T10:56:53;15.48;;;3.97;;
15748;SDS011;7976;52.526;13.326;2023-11-21T10:59:24;17.52;;;4.78;;
15748;SDS011;7976;52.526;13.326;2023-11-21T11:01:57;17.10;;;4.97;;
15748;SDS011;7976;52.526;13.326;2023-11-21T11:04:26;13.30;;;4.22;;
15748;SDS011;7976;52.526;13.326;2023-11-21T11:06:56;12.48;;;4.18;;
15748;SDS011;7976;52.526;13.326;2023-11-21T11:09:28;13.48;;;4.45;;
15748;SDS011;7976;52.526;13.326;2023-11-21T11:11:58;15.48;;;5.10;;
15748;SDS011;7976;52.526;13.326;2023-11-21T11:14:26;13.57;;;3.60;;
15748;SDS011;7976;52.526;13.326;2023-11-21T11:16:54;13.27;;;4.00;;
15748;SDS011;7976;52.526;13.326;2023-11-21T11:19:21;18.30;;;5.72;;
15748;SDS011;7976;52.526;13.326;2023-11-21T11:21:51;13.93;;;4.65;;
15748;SDS011;7976;52.526;13.326;2023-11-21T11:24:47;11.13;;;3.80;;
15748;SDS011;7976;52.526;13.326;2023-11-21T11:27:40;11.20;;;3.85;;
15748;SDS011;7976;52.526;13.326;2023-11-21T11:30:20;15.02;;;5.88;;
15748;SDS011;7976;52.526;13.326;2023-11-21T11:33:08;12.80;;;4.35;;
15748;SDS011;7976;52.526;13.326;2023-11-21T11:35:52;12.32;;;4.63;;
15748;SDS011;7976;52.526;13.326;2023-11-21T11:38:31;12.63;;;4.78;;
15748;SDS011;7976;52.526;13.326;2023-11-21T11:41:01;10.95;;;3.80;;
15748;SDS011;7976;52.526;13.326;2023-11-21T11:43:30;9.30;;;3.42;;
15748;SDS011;7976;52.526;13.326;2023-11-21T11:46:05;11.40;;;3.10;;
15748;SDS011;7976;52.526;13.326;2023-11-21T11:48:34;12.57;;;3.80;;
15748;SDS011;7976;52.526;13.326;2023-11-21T11:51:05;10.90;;;3.90;;
15748;SDS011;7976;52.526;13.326;2023-11-21T11:53:41;17.13;;;6.28;;
15748;SDS011;7976;52.526;13.326;2023-11-21T11:56:20;20.23;;;7.22;;
15748;SDS011;7976;52.526;13.326;2023-11-21T11:58:54;16.55;;;5.88;;
15748;SDS011;7976;52.526;13.326;2023-11-21T12:01:24;24.77;;;10.32;;
15748;SDS011;7976;52.526;13.326;2023-11-21T12:06:56;23.88;;;6.45;;
15748;SDS011;7976;52.526;13.326;2023-11-21T12:09:29;9.45;;;2.85;;
15748;SDS011;7976;52.526;13.326;2023-11-21T12:11:58;12.55;;;4.55;;
15748;SDS011;7976;52.526;13.326;2023-11-21T12:14:26;15.32;;;4.55;;
15748;SDS011;7976;52.526;13.326;2023-11-21T12:16:54;13.73;;;5.47;;
15748;SDS011;7976;52.526;13.326;2023-11-21T12:19:21;16.60;;;5.40;;
15748;SDS011;7976;52.526;13.326;2023-11-21T12:21:48;12.27;;;4.13;;
15748;SDS011;7976;52.526;13.326;2023-11-21T12:24:16;10.43;;;3.80;;
15748;SDS011;7976;52.526;13.326;2023-11-21T12:26:44;9.60;;;3.17;;
15748;SDS011;7976;52.526;13.326;2023-11-21T12:29:11;12.93;;;4.18;;
15748;SDS011;7976;52.526;13.326;2023-11-21T12:31:38;8.88;;;2.92;;
15748;SDS011;7976;52.526;13.326;2023-11-21T12:34:06;10.73;;;3.10;;
15748;SDS011;7976;52.526;13.326;2023-11-21T12:36:36;9.18;;;2.45;;
15748;SDS011;7976;52.526;13.326;2023-11-21T12:39:04;12.98;;;3.53;;
15748;SDS011;7976;52.526;13.326;2023-11-21T12:41:34;13.55;;;3.95;;
15748;SDS011;7976;52.526;13.326;2023-11-21T12:44:02;11.77;;;3.03;;
15748;SDS011;7976;52.526;13.326;2023-11-21T12:46:29;8.38;;;3.17;;
15748;SDS011;7976;52.526;13.326;2023-11-21T12:48:59;7.75;;;2.65;;
15748;SDS011;7976;52.526;13.326;2023-11-21T12:51:26;10.43;;;3.75;;
15748;SDS011;7976;52.526;13.326;2023-11-21T12:53:54;14.27;;;4.05;;
15748;SDS011;7976;52.526;13.326;2023-11-21T12:56:21;9.48;;;3.55;;
15748;SDS011;7976;52.526;13.326;2023-11-21T12:58:49;13.43;;;5.00;;
15748;SDS011;7976;52.526;13.326;2023-11-21T13:01:20;29.55;;;11.98;;
15748;SDS011;7976;52.526;13.326;2023-11-21T13:03:53;40.88;;;13.65;;
15748;SDS011;7976;52.526;13.326;2023-11-21T13:06:20;29.55;;;10.18;;
15748;SDS011;7976;52.526;13.326;2023-11-21T13:08:49;44.03;;;13.90;;
15748;SDS011;7976;52.526;13.326;2023-11-21T13:11:16;33.67;;;13.10;;
15748;SDS011;7976;52.526;13.326;2023-11-21T13:13:43;30.85;;;11.43;;
15748;SDS011;7976;52.526;13.326;2023-11-21T13:16:10;26.02;;;7.15;;
15748;SDS011;7976;52.526;13.326;2023-11-21T13:18:39;18.25;;;4.30;;
15748;SDS011;7976;52.526;13.326;2023-11-21T13:21:07;13.40;;;4.47;;
15748;SDS011;7976;52.526;13.326;2023-11-21T13:23:38;11.93;;;3.80;;
15748;SDS011;7976;52.526;13.326;2023-11-21T13:26:07;15.23;;;5.63;;
15748;SDS011;7976;52.526;13.326;2023-11-21T13:28:35;23.40;;;8.13;;
15748;SDS011;7976;52.526;13.326;2023-11-21T13:31:02;15.23;;;5.47;;
15748;SDS011;7976;52.526;13.326;2023-11-21T13:33:47;15.75;;;5.75;;
15748;SDS011;7976;52.526;13.326;2023-11-21T13:36:20;17.40;;;4.20;;
15748;SDS011;7976;52.526;13.326;2023-11-21T13:38:48;21.95;;;5.70;;
15748;SDS011;7976;52.526;13.326;2023-11-21T13:41:17;68.55;;;25.25;;
15748;SDS011;7976;52.526;13.326;2023-11-21T13:43:44;47.53;;;20.25;;
15748;SDS011;7976;52.526;13.326;2023-11-21T13:46:17;78.28;;;32.70;;
15748;SDS011;7976;52.526;13.326;2023-11-21T13:48:48;39.45;;;16.50;;
15748;SDS011;7976;52.526;13.326;2023-11-21T13:51:20;30.25;;;13.02;;
15748;SDS011;7976;52.526;13.326;2023-11-21T13:53:56;19.08;;;5.35;;
15748;SDS011;7976;52.526;13.326;2023-11-21T13:56:24;22.30;;;8.27;;
15748;SDS011;7976;52.526;13.326;2023-11-21T13:58:53;21.30;;;7.45;;
15748;SDS011;7976;52.526;13.326;2023-11-21T14:01:21;24.70;;;8.68;;
15748;SDS011;7976;52.526;13.326;2023-11-21T14:04:14;27.85;;;9.55;;
15748;SDS011;7976;52.526;13.326;2023-11-21T14:06:56;52.50;;;18.38;;
15748;SDS011;7976;52.526;13.326;2023-11-21T14:09:26;35.85;;;12.75;;
15748;SDS011;7976;52.526;13.326;2023-11-21T14:12:00;28.80;;;9.00;;
15748;SDS011;7976;52.526;13.326;2023-11-21T14:14:31;29.05;;;11.90;;
15748;SDS011;7976;52.526;13.326;2023-11-21T14:16:59;35.67;;;13.57;;
15748;SDS011;7976;52.526;13.326;2023-11-21T14:19:32;34.58;;;10.68;;
15748;SDS011;7976;52.526;13.326;2023-11-21T14:22:05;26.30;;;9.07;;
15748;SDS011;7976;52.526;13.326;2023-11-21T14:24:32;28.05;;;8.43;;
15748;SDS011;7976;52.526;13.326;2023-11-21T14:26:59;25.77;;;8.20;;
15748;SDS011;7976;52.526;13.326;2023-11-21T14:29:26;27.25;;;8.48;;
15748;SDS011;7976;52.526;13.326;2023-11-21T14:31:55;21.55;;;8.10;;
15748;SDS011;7976;52.526;13.326;2023-11-21T14:34:22;24.10;;;8.38;;
15748;SDS011;7976;52.526;13.326;2023-11-21T14:36:53;24.15;;;8.13;;
15748;SDS011;7976;52.526;13.326;2023-11-21T14:39:19;18.50;;;7.45;;
15748;SDS011;7976;52.526;13.326;2023-11-21T14:41:51;22.80;;;9.15;;
15748;SDS011;7976;52.526;13.326;2023-11-21T14:44:21;22.27;;;7.68;;
15748;SDS011;7976;52.526;13.326;2023-11-21T14:46:51;16.83;;;6.50;;